sensor_id;sensor_type;location;lat;lon;timestamp;P1;durP1;ratioP1;P2;durP2;ratioP2
77085;SDS011;66014;53.134;18.006;2023-11-25T00:00:54;3.30;;;1.60;;
77085;SDS011;66014;53.134;18.006;2023-11-25T00:03:37;3.40;;;1.50;;
77085;SDS011;66014;53.134;18.006;2023-11-25T00:06:05;4.00;;;1.70;;
77085;SDS011;66014;53.134;18.006;2023-11-25T00:08:31;4.20;;;1.30;;
77085;SDS011;66014;53.134;18.006;2023-11-25T00:14:17;2.70;;;1.20;;
77085;SDS011;66014;53.134;18.006;2023-11-25T00:16:44;4.40;;;1.50;;
77085;SDS011;66014;53.134;18.006;2023-11-25T00:19:11;5.30;;;1.50;;
77085;SDS011;66014;53.134;18.006;2023-11-25T00:24:56;2.40;;;1.30;;
77085;SDS011;66014;53.134;18.006;2023-11-25T00:30:41;4.40;;;1.90;;
77085;SDS011;66014;53.134;18.006;2023-11-25T00:33:07;5.10;;;2.00;;
77085;SDS011;66014;53.134;18.006;2023-11-25T00:35:49;5.50;;;2.10;;
77085;SDS011;66014;53.134;18.006;2023-11-25T00:38:16;5.30;;;2.10;;
77085;SDS011;66014;53.134;18.006;2023-11-25T00:40:43;2.70;;;1.30;;
77085;SDS011;66014;53.134;18.006;2023-11-25T00:43:09;3.20;;;1.40;;
77085;SDS011;66014;53.134;18.006;2023-11-25T00:45:40;3.70;;;1.40;;
77085;SDS011;66014;53.134;18.006;2023-11-25T00:48:08;3.40;;;1.60;;
77085;SDS011;66014;53.134;18.006;2023-11-25T00:50:33;2.30;;;1.30;;
77085;SDS011;66014;53.134;18.006;2023-11-25T00:52:59;2.10;;;1.20;;
77085;SDS011;66014;53.134;18.006;2023-11-25T00:55:31;3.10;;;1.30;;
77085;SDS011;66014;53.134;18.006;2023-11-25T01:01:58;5.30;;;1.60;;
77085;SDS011;66014;53.134;18.006;2023-11-25T01:04:24;3.10;;;1.50;;
77085;SDS011;66014;53.134;18.006;2023-11-25T01:06:56;3.00;;;1.40;;
77085;SDS011;66014;53.134;18.006;2023-11-25T01:09:32;2.20;;;0.90;;
77085;SDS011;66014;53.134;18.006;2023-11-25T01:12:07;3.30;;;1.40;;
77085;SDS011;66014;53.134;18.006;2023-11-25T01:14:33;3.00;;;1.50;;
77085;SDS011;66014;53.134;18.006;2023-11-25T01:16:59;5.10;;;1.80;;
77085;SDS011;66014;53.134;18.006;2023-11-25T01:19:26;4.80;;;1.70;;
77085;SDS011;66014;53.134;18.006;2023-11-25T01:21:53;4.80;;;2.10;;
77085;SDS011;66014;53.134;18.006;2023-11-25T01:24:23;3.40;;;1.70;;
77085;SDS011;66014;53.134;18.006;2023-11-25T01:26:52;4.90;;;1.40;;
77085;SDS011;66014;53.134;18.006;2023-11-25T01:29:18;5.00;;;1.80;;
77085;SDS011;66014;53.134;18.006;2023-11-25T01:31:44;5.30;;;1.90;;
77085;SDS011;66014;53.134;18.006;2023-11-25T01:34:10;6.80;;;1.90;;
77085;SDS011;66014;53.134;18.006;2023-11-25T01:36:36;4.60;;;1.80;;
77085;SDS011;66014;53.134;18.006;2023-11-25T01:39:03;5.70;;;1.60;;
77085;SDS011;66014;53.134;18.006;2023-11-25T01:41:33;4.80;;;1.70;;
77085;SDS011;66014;53.134;18.006;2023-11-25T01:43:59;6.30;;;1.70;;
77085;SDS011;66014;53.134;18.006;2023-11-25T01:46:33;2.80;;;1.10;;
77085;SDS011;66014;53.134;18.006;2023-11-25T01:49:20;6.30;;;1.80;;
77085;SDS011;66014;53.134;18.006;2023-11-25T01:52:02;4.20;;;1.60;;
77085;SDS011;66014;53.134;18.006;2023-11-25T01:54:31;4.00;;;1.70;;
77085;SDS011;66014;53.134;18.006;2023-11-25T01:56:57;4.60;;;1.70;;
77085;SDS011;66014;53.134;18.006;2023-11-25T01:59:25;2.80;;;1.60;;
77085;SDS011;66014;53.134;18.006;2023-11-25T02:01:53;5.10;;;1.90;;
77085;SDS011;66014;53.134;18.006;2023-11-25T02:04:21;5.40;;;2.30;;
77085;SDS011;66014;53.134;18.006;2023-11-25T02:06:48;6.40;;;1.90;;
77085;SDS011;66014;53.134;18.006;2023-11-25T02:09:15;3.10;;;1.50;;
77085;SDS011;66014;53.134;18.006;2023-11-25T02:11:59;3.70;;;1.30;;
77085;SDS011;66014;53.134;18.006;2023-11-25T02:14:27;5.60;;;1.60;;
77085;SDS011;66014;53.134;18.006;2023-11-25T02:16:54;2.10;;;1.10;;
77085;SDS011;66014;53.134;18.006;2023-11-25T02:19:21;3.80;;;1.50;;
77085;SDS011;66014;53.134;18.006;2023-11-25T02:21:49;3.00;;;1.30;;
77085;SDS011;66014;53.134;18.006;2023-11-25T02:24:17;6.80;;;1.50;;
77085;SDS011;66014;53.134;18.006;2023-11-25T02:26:56;3.40;;;1.20;;
77085;SDS011;66014;53.134;18.006;2023-11-25T02:29:24;5.00;;;1.80;;
77085;SDS011;66014;53.134;18.006;2023-11-25T02:31:54;5.00;;;1.40;;
77085;SDS011;66014;53.134;18.006;2023-11-25T02:37:44;4.10;;;1.20;;
77085;SDS011;66014;53.134;18.006;2023-11-25T02:40:18;3.50;;;1.40;;
77085;SDS011;66014;53.134;18.006;2023-11-25T02:42:45;6.60;;;2.80;;
77085;SDS011;66014;53.134;18.006;2023-11-25T02:45:15;5.40;;;2.40;;
77085;SDS011;66014;53.134;18.006;2023-11-25T02:47:49;4.00;;;2.20;;
77085;SDS011;66014;53.134;18.006;2023-11-25T02:50:16;5.30;;;3.30;;
77085;SDS011;66014;53.134;18.006;2023-11-25T02:52:44;4.70;;;2.60;;
77085;SDS011;66014;53.134;18.006;2023-11-25T02:55:11;3.40;;;1.40;;
77085;SDS011;66014;53.134;18.006;2023-11-25T02:57:48;7.10;;;3.00;;
77085;SDS011;66014;53.134;18.006;2023-11-25T03:00:14;5.60;;;1.60;;
77085;SDS011;66014;53.134;18.006;2023-11-25T03:02:44;5.60;;;2.50;;
77085;SDS011;66014;53.134;18.006;2023-11-25T03:05:10;6.20;;;1.90;;
77085;SDS011;66014;53.134;18.006;2023-11-25T03:07:39;3.00;;;1.40;;
77085;SDS011;66014;53.134;18.006;2023-11-25T03:10:05;2.60;;;1.20;;
77085;SDS011;66014;53.134;18.006;2023-11-25T03:12:32;4.60;;;2.00;;
77085;SDS011;66014;53.134;18.006;2023-11-25T03:14:58;5.10;;;2.10;;
77085;SDS011;66014;53.134;18.006;2023-11-25T03:17:24;5.30;;;2.10;;
77085;SDS011;66014;53.134;18.006;2023-11-25T03:19:50;4.90;;;2.40;;
77085;SDS011;66014;53.134;18.006;2023-11-25T03:22:16;3.40;;;1.60;;
77085;SDS011;66014;53.134;18.006;2023-11-25T03:24:41;4.20;;;2.00;;
77085;SDS011;66014;53.134;18.006;2023-11-25T03:27:07;6.90;;;2.90;;
77085;SDS011;66014;53.134;18.006;2023-11-25T03:29:33;6.10;;;2.50;;
77085;SDS011;66014;53.134;18.006;2023-11-25T03:32:00;4.10;;;1.50;;
77085;SDS011;66014;53.134;18.006;2023-11-25T03:34:26;8.20;;;1.90;;
77085;SDS011;66014;53.134;18.006;2023-11-25T03:36:53;6.70;;;3.10;;
77085;SDS011;66014;53.134;18.006;2023-11-25T03:39:22;5.50;;;1.90;;
77085;SDS011;66014;53.134;18.006;2023-11-25T03:41:48;8.00;;;3.10;;
77085;SDS011;66014;53.134;18.006;2023-11-25T03:44:14;5.40;;;2.40;;
77085;SDS011;66014;53.134;18.006;2023-11-25T03:46:42;7.20;;;2.50;;
77085;SDS011;66014;53.134;18.006;2023-11-25T03:49:08;6.80;;;2.40;;
77085;SDS011;66014;53.134;18.006;2023-11-25T03:51:35;11.50;;;4.20;;
77085;SDS011;66014;53.134;18.006;2023-11-25T03:54:04;7.90;;;3.00;;
77085;SDS011;66014;53.134;18.006;2023-11-25T03:56:32;9.80;;;4.00;;
77085;SDS011;66014;53.134;18.006;2023-11-25T03:59:01;6.20;;;2.70;;
77085;SDS011;66014;53.134;18.006;2023-11-25T04:01:28;7.80;;;3.50;;
77085;SDS011;66014;53.134;18.006;2023-11-25T04:03:54;7.70;;;2.40;;
77085;SDS011;66014;53.134;18.006;2023-11-25T04:06:20;5.20;;;1.70;;
77085;SDS011;66014;53.134;18.006;2023-11-25T04:09:18;3.50;;;1.50;;
77085;SDS011;66014;53.134;18.006;2023-11-25T04:11:44;3.70;;;1.50;;
77085;SDS011;66014;53.134;18.006;2023-11-25T04:14:34;4.80;;;1.70;;
77085;SDS011;66014;53.134;18.006;2023-11-25T04:17:33;3.60;;;1.20;;
77085;SDS011;66014;53.134;18.006;2023-11-25T04:23:18;5.20;;;1.90;;
77085;SDS011;66014;53.134;18.006;2023-11-25T04:25:58;5.10;;;2.00;;
77085;SDS011;66014;53.134;18.006;2023-11-25T04:29:18;8.80;;;2.70;;
77085;SDS011;66014;53.134;18.006;2023-11-25T04:35:35;6.40;;;2.30;;
77085;SDS011;66014;53.134;18.006;2023-11-25T04:38:12;6.20;;;2.30;;
77085;SDS011;66014;53.134;18.006;2023-11-25T04:40:59;5.40;;;2.20;;
77085;SDS011;66014;53.134;18.006;2023-11-25T04:43:29;12.00;;;2.70;;
77085;SDS011;66014;53.134;18.006;2023-11-25T04:46:08;8.00;;;2.00;;
77085;SDS011;66014;53.134;18.006;2023-11-25T04:48:43;5.90;;;2.10;;
77085;SDS011;66014;53.134;18.006;2023-11-25T04:51:09;7.90;;;2.00;;
77085;SDS011;66014;53.134;18.006;2023-11-25T04:56:30;9.00;;;2.30;;
77085;SDS011;66014;53.134;18.006;2023-11-25T04:58:56;7.30;;;2.20;;
77085;SDS011;66014;53.134;18.006;2023-11-25T05:01:23;5.70;;;1.70;;
77085;SDS011;66014;53.134;18.006;2023-11-25T05:10:59;7.00;;;1.90;;
77085;SDS011;66014;53.134;18.006;2023-11-25T05:13:26;4.00;;;1.80;;
77085;SDS011;66014;53.134;18.006;2023-11-25T05:15:55;7.70;;;2.40;;
77085;SDS011;66014;53.134;18.006;2023-11-25T05:18:23;6.40;;;3.00;;
77085;SDS011;66014;53.134;18.006;2023-11-25T05:20:49;7.00;;;2.00;;
77085;SDS011;66014;53.134;18.006;2023-11-25T05:23:15;6.60;;;2.70;;
77085;SDS011;66014;53.134;18.006;2023-11-25T05:25:41;4.10;;;1.80;;
77085;SDS011;66014;53.134;18.006;2023-11-25T05:28:07;6.00;;;2.40;;
77085;SDS011;66014;53.134;18.006;2023-11-25T05:30:33;7.40;;;2.70;;
77085;SDS011;66014;53.134;18.006;2023-11-25T05:32:59;7.90;;;2.70;;
77085;SDS011;66014;53.134;18.006;2023-11-25T05:35:24;5.60;;;2.50;;
77085;SDS011;66014;53.134;18.006;2023-11-25T05:37:51;6.80;;;3.10;;
77085;SDS011;66014;53.134;18.006;2023-11-25T05:40:18;8.00;;;2.70;;
77085;SDS011;66014;53.134;18.006;2023-11-25T05:42:44;8.40;;;3.40;;
77085;SDS011;66014;53.134;18.006;2023-11-25T05:45:18;8.60;;;3.30;;
77085;SDS011;66014;53.134;18.006;2023-11-25T05:47:47;8.40;;;3.20;;
77085;SDS011;66014;53.134;18.006;2023-11-25T05:50:15;8.70;;;3.20;;
77085;SDS011;66014;53.134;18.006;2023-11-25T05:52:45;12.00;;;5.00;;
77085;SDS011;66014;53.134;18.006;2023-11-25T05:55:12;9.20;;;4.80;;
77085;SDS011;66014;53.134;18.006;2023-11-25T05:57:38;9.60;;;4.90;;
77085;SDS011;66014;53.134;18.006;2023-11-25T06:00:24;10.40;;;4.50;;
77085;SDS011;66014;53.134;18.006;2023-11-25T06:02:53;11.20;;;4.80;;
77085;SDS011;66014;53.134;18.006;2023-11-25T06:05:19;8.10;;;3.10;;
77085;SDS011;66014;53.134;18.006;2023-11-25T06:07:46;10.10;;;4.10;;
77085;SDS011;66014;53.134;18.006;2023-11-25T06:10:12;11.30;;;5.70;;
77085;SDS011;66014;53.134;18.006;2023-11-25T06:12:43;8.10;;;4.60;;
77085;SDS011;66014;53.134;18.006;2023-11-25T06:15:13;8.40;;;4.30;;
77085;SDS011;66014;53.134;18.006;2023-11-25T06:21:04;5.80;;;2.10;;
77085;SDS011;66014;53.134;18.006;2023-11-25T06:27:15;3.90;;;1.60;;
77085;SDS011;66014;53.134;18.006;2023-11-25T06:30:03;6.40;;;2.60;;
77085;SDS011;66014;53.134;18.006;2023-11-25T06:32:34;9.20;;;2.80;;
77085;SDS011;66014;53.134;18.006;2023-11-25T06:35:01;9.60;;;3.40;;
77085;SDS011;66014;53.134;18.006;2023-11-25T06:38:15;7.10;;;3.00;;
77085;SDS011;66014;53.134;18.006;2023-11-25T06:40:51;5.20;;;2.00;;
77085;SDS011;66014;53.134;18.006;2023-11-25T06:43:35;4.10;;;1.80;;
77085;SDS011;66014;53.134;18.006;2023-11-25T06:46:03;5.20;;;2.20;;
77085;SDS011;66014;53.134;18.006;2023-11-25T06:48:30;6.60;;;2.90;;
77085;SDS011;66014;53.134;18.006;2023-11-25T06:50:57;7.40;;;3.20;;
77085;SDS011;66014;53.134;18.006;2023-11-25T06:53:27;5.50;;;2.60;;
77085;SDS011;66014;53.134;18.006;2023-11-25T06:55:56;7.70;;;2.70;;
77085;SDS011;66014;53.134;18.006;2023-11-25T06:58:27;4.70;;;2.20;;
77085;SDS011;66014;53.134;18.006;2023-11-25T07:01:07;6.50;;;2.30;;
77085;SDS011;66014;53.134;18.006;2023-11-25T07:04:01;8.40;;;3.40;;
77085;SDS011;66014;53.134;18.006;2023-11-25T07:06:30;9.60;;;3.70;;
77085;SDS011;66014;53.134;18.006;2023-11-25T07:08:56;7.30;;;3.00;;
77085;SDS011;66014;53.134;18.006;2023-11-25T07:11:28;8.70;;;3.00;;
77085;SDS011;66014;53.134;18.006;2023-11-25T07:14:00;7.20;;;3.10;;
77085;SDS011;66014;53.134;18.006;2023-11-25T07:16:28;10.50;;;5.50;;
77085;SDS011;66014;53.134;18.006;2023-11-25T07:18:54;6.10;;;2.50;;
77085;SDS011;66014;53.134;18.006;2023-11-25T07:21:20;8.40;;;4.20;;
77085;SDS011;66014;53.134;18.006;2023-11-25T07:23:52;5.30;;;2.10;;
77085;SDS011;66014;53.134;18.006;2023-11-25T07:26:18;4.40;;;1.90;;
77085;SDS011;66014;53.134;18.006;2023-11-25T07:28:47;4.80;;;2.70;;
77085;SDS011;66014;53.134;18.006;2023-11-25T07:31:13;10.60;;;4.40;;
77085;SDS011;66014;53.134;18.006;2023-11-25T07:33:39;22.10;;;9.50;;
77085;SDS011;66014;53.134;18.006;2023-11-25T07:36:05;19.10;;;7.60;;
77085;SDS011;66014;53.134;18.006;2023-11-25T07:38:32;22.60;;;7.40;;
77085;SDS011;66014;53.134;18.006;2023-11-25T07:40:58;13.60;;;4.90;;
77085;SDS011;66014;53.134;18.006;2023-11-25T07:43:25;13.60;;;5.70;;
77085;SDS011;66014;53.134;18.006;2023-11-25T07:45:51;12.10;;;5.50;;
77085;SDS011;66014;53.134;18.006;2023-11-25T07:48:18;6.00;;;2.60;;
77085;SDS011;66014;53.134;18.006;2023-11-25T07:50:45;9.10;;;4.60;;
77085;SDS011;66014;53.134;18.006;2023-11-25T07:53:11;9.40;;;4.70;;
77085;SDS011;66014;53.134;18.006;2023-11-25T07:55:38;11.10;;;5.50;;
77085;SDS011;66014;53.134;18.006;2023-11-25T07:58:06;8.30;;;3.60;;
77085;SDS011;66014;53.134;18.006;2023-11-25T08:00:33;8.40;;;3.90;;
77085;SDS011;66014;53.134;18.006;2023-11-25T08:02:59;5.80;;;2.30;;
77085;SDS011;66014;53.134;18.006;2023-11-25T08:05:25;6.90;;;2.70;;
77085;SDS011;66014;53.134;18.006;2023-11-25T08:07:52;8.80;;;3.80;;
77085;SDS011;66014;53.134;18.006;2023-11-25T08:10:20;5.80;;;2.90;;
77085;SDS011;66014;53.134;18.006;2023-11-25T08:12:48;9.20;;;4.70;;
77085;SDS011;66014;53.134;18.006;2023-11-25T08:15:15;5.00;;;2.50;;
77085;SDS011;66014;53.134;18.006;2023-11-25T08:17:43;7.00;;;2.50;;
77085;SDS011;66014;53.134;18.006;2023-11-25T08:20:09;7.00;;;3.20;;
77085;SDS011;66014;53.134;18.006;2023-11-25T08:22:36;11.70;;;5.50;;
77085;SDS011;66014;53.134;18.006;2023-11-25T08:25:08;7.90;;;3.50;;
77085;SDS011;66014;53.134;18.006;2023-11-25T08:27:35;9.20;;;4.40;;
77085;SDS011;66014;53.134;18.006;2023-11-25T08:30:05;35.40;;;12.20;;
77085;SDS011;66014;53.134;18.006;2023-11-25T08:32:34;12.60;;;5.20;;
77085;SDS011;66014;53.134;18.006;2023-11-25T08:37:32;12.70;;;7.50;;
77085;SDS011;66014;53.134;18.006;2023-11-25T08:39:58;17.50;;;5.90;;
77085;SDS011;66014;53.134;18.006;2023-11-25T08:42:25;17.80;;;7.20;;
77085;SDS011;66014;53.134;18.006;2023-11-25T08:44:52;10.90;;;3.70;;
77085;SDS011;66014;53.134;18.006;2023-11-25T08:47:18;7.30;;;3.10;;
77085;SDS011;66014;53.134;18.006;2023-11-25T08:49:44;9.40;;;3.20;;
77085;SDS011;66014;53.134;18.006;2023-11-25T08:52:14;5.80;;;2.90;;
77085;SDS011;66014;53.134;18.006;2023-11-25T08:54:44;5.50;;;2.30;;
77085;SDS011;66014;53.134;18.006;2023-11-25T08:57:14;7.00;;;2.30;;
77085;SDS011;66014;53.134;18.006;2023-11-25T08:59:44;5.00;;;2.10;;
77085;SDS011;66014;53.134;18.006;2023-11-25T09:02:10;7.00;;;2.20;;
77085;SDS011;66014;53.134;18.006;2023-11-25T09:04:39;6.10;;;2.80;;
77085;SDS011;66014;53.134;18.006;2023-11-25T09:07:15;5.10;;;2.20;;
77085;SDS011;66014;53.134;18.006;2023-11-25T09:09:49;12.20;;;7.30;;
77085;SDS011;66014;53.134;18.006;2023-11-25T09:12:21;6.20;;;3.70;;
77085;SDS011;66014;53.134;18.006;2023-11-25T09:14:54;10.10;;;4.80;;
77085;SDS011;66014;53.134;18.006;2023-11-25T09:17:44;7.40;;;4.20;;
77085;SDS011;66014;53.134;18.006;2023-11-25T09:20:11;5.60;;;3.00;;
77085;SDS011;66014;53.134;18.006;2023-11-25T09:22:38;8.10;;;4.60;;
77085;SDS011;66014;53.134;18.006;2023-11-25T09:25:05;8.60;;;4.10;;
77085;SDS011;66014;53.134;18.006;2023-11-25T09:27:31;9.20;;;4.10;;
77085;SDS011;66014;53.134;18.006;2023-11-25T09:29:58;7.00;;;4.30;;
77085;SDS011;66014;53.134;18.006;2023-11-25T09:32:24;8.00;;;4.20;;
77085;SDS011;66014;53.134;18.006;2023-11-25T09:34:53;8.60;;;4.20;;
77085;SDS011;66014;53.134;18.006;2023-11-25T09:37:27;5.70;;;3.30;;
77085;SDS011;66014;53.134;18.006;2023-11-25T09:39:57;7.20;;;2.50;;
77085;SDS011;66014;53.134;18.006;2023-11-25T09:42:27;5.90;;;2.60;;
77085;SDS011;66014;53.134;18.006;2023-11-25T09:44:53;10.00;;;4.50;;
77085;SDS011;66014;53.134;18.006;2023-11-25T09:47:20;10.50;;;3.80;;
77085;SDS011;66014;53.134;18.006;2023-11-25T09:49:46;8.20;;;3.40;;
77085;SDS011;66014;53.134;18.006;2023-11-25T09:52:12;9.90;;;4.20;;
77085;SDS011;66014;53.134;18.006;2023-11-25T09:54:43;14.30;;;4.60;;
77085;SDS011;66014;53.134;18.006;2023-11-25T09:57:15;23.00;;;7.50;;
77085;SDS011;66014;53.134;18.006;2023-11-25T09:59:44;6.20;;;2.80;;
77085;SDS011;66014;53.134;18.006;2023-11-25T10:02:10;8.70;;;3.80;;
77085;SDS011;66014;53.134;18.006;2023-11-25T10:04:38;13.60;;;4.80;;
77085;SDS011;66014;53.134;18.006;2023-11-25T10:07:07;10.80;;;4.10;;
77085;SDS011;66014;53.134;18.006;2023-11-25T10:09:41;8.30;;;3.80;;
77085;SDS011;66014;53.134;18.006;2023-11-25T10:12:08;10.10;;;4.40;;
77085;SDS011;66014;53.134;18.006;2023-11-25T10:14:42;11.60;;;4.80;;
77085;SDS011;66014;53.134;18.006;2023-11-25T10:17:15;9.10;;;3.70;;
77085;SDS011;66014;53.134;18.006;2023-11-25T10:19:44;10.30;;;4.60;;
77085;SDS011;66014;53.134;18.006;2023-11-25T10:24:49;13.20;;;6.80;;
77085;SDS011;66014;53.134;18.006;2023-11-25T10:27:15;11.10;;;6.70;;
77085;SDS011;66014;53.134;18.006;2023-11-25T10:29:47;13.30;;;5.40;;
77085;SDS011;66014;53.134;18.006;2023-11-25T10:32:16;14.60;;;5.90;;
77085;SDS011;66014;53.134;18.006;2023-11-25T10:34:41;11.20;;;5.60;;
77085;SDS011;66014;53.134;18.006;2023-11-25T10:37:08;8.00;;;3.50;;
77085;SDS011;66014;53.134;18.006;2023-11-25T10:39:34;9.80;;;4.80;;
77085;SDS011;66014;53.134;18.006;2023-11-25T10:42:02;6.50;;;3.20;;
77085;SDS011;66014;53.134;18.006;2023-11-25T10:44:34;5.60;;;3.20;;
77085;SDS011;66014;53.134;18.006;2023-11-25T10:47:00;9.50;;;3.80;;
77085;SDS011;66014;53.134;18.006;2023-11-25T10:49:30;9.50;;;3.70;;
77085;SDS011;66014;53.134;18.006;2023-11-25T10:51:57;10.20;;;4.00;;
77085;SDS011;66014;53.134;18.006;2023-11-25T10:54:29;10.30;;;4.60;;
77085;SDS011;66014;53.134;18.006;2023-11-25T10:56:57;10.00;;;4.60;;
77085;SDS011;66014;53.134;18.006;2023-11-25T10:59:32;9.30;;;3.50;;
77085;SDS011;66014;53.134;18.006;2023-11-25T11:02:10;12.30;;;5.40;;
77085;SDS011;66014;53.134;18.006;2023-11-25T11:04:52;14.10;;;5.60;;
77085;SDS011;66014;53.134;18.006;2023-11-25T11:09:56;6.70;;;3.20;;
77085;SDS011;66014;53.134;18.006;2023-11-25T11:12:42;6.30;;;3.60;;
77085;SDS011;66014;53.134;18.006;2023-11-25T11:15:14;6.70;;;3.30;;
77085;SDS011;66014;53.134;18.006;2023-11-25T11:20:24;9.60;;;4.30;;
77085;SDS011;66014;53.134;18.006;2023-11-25T11:22:54;6.50;;;3.60;;
77085;SDS011;66014;53.134;18.006;2023-11-25T11:25:32;6.10;;;2.80;;
77085;SDS011;66014;53.134;18.006;2023-11-25T11:28:19;10.90;;;4.50;;
77085;SDS011;66014;53.134;18.006;2023-11-25T11:33:39;21.00;;;9.70;;
77085;SDS011;66014;53.134;18.006;2023-11-25T11:36:05;13.20;;;6.80;;
77085;SDS011;66014;53.134;18.006;2023-11-25T11:38:32;12.60;;;6.40;;
77085;SDS011;66014;53.134;18.006;2023-11-25T11:40:58;21.80;;;8.70;;
77085;SDS011;66014;53.134;18.006;2023-11-25T11:43:34;16.60;;;6.60;;
77085;SDS011;66014;53.134;18.006;2023-11-25T11:46:00;13.00;;;5.70;;
77085;SDS011;66014;53.134;18.006;2023-11-25T11:48:25;13.50;;;6.20;;
77085;SDS011;66014;53.134;18.006;2023-11-25T11:50:52;7.90;;;4.00;;
77085;SDS011;66014;53.134;18.006;2023-11-25T11:53:21;9.10;;;4.40;;
77085;SDS011;66014;53.134;18.006;2023-11-25T11:58:21;8.40;;;4.50;;
77085;SDS011;66014;53.134;18.006;2023-11-25T12:01:05;18.40;;;9.10;;
77085;SDS011;66014;53.134;18.006;2023-11-25T12:03:34;7.20;;;3.60;;
77085;SDS011;66014;53.134;18.006;2023-11-25T12:06:04;6.10;;;3.30;;
77085;SDS011;66014;53.134;18.006;2023-11-25T12:08:31;7.30;;;3.00;;
77085;SDS011;66014;53.134;18.006;2023-11-25T12:10:59;9.90;;;4.90;;
77085;SDS011;66014;53.134;18.006;2023-11-25T12:13:29;13.80;;;5.60;;
77085;SDS011;66014;53.134;18.006;2023-11-25T12:15:56;10.80;;;5.00;;
77085;SDS011;66014;53.134;18.006;2023-11-25T12:18:27;10.20;;;5.30;;
77085;SDS011;66014;53.134;18.006;2023-11-25T12:21:02;17.10;;;8.10;;
77085;SDS011;66014;53.134;18.006;2023-11-25T12:23:31;16.00;;;6.10;;
77085;SDS011;66014;53.134;18.006;2023-11-25T12:25:59;18.20;;;8.40;;
77085;SDS011;66014;53.134;18.006;2023-11-25T12:28:29;16.30;;;8.10;;
77085;SDS011;66014;53.134;18.006;2023-11-25T12:30:55;19.20;;;9.90;;
77085;SDS011;66014;53.134;18.006;2023-11-25T12:33:22;10.90;;;4.80;;
77085;SDS011;66014;53.134;18.006;2023-11-25T12:35:50;20.90;;;11.90;;
77085;SDS011;66014;53.134;18.006;2023-11-25T12:38:16;20.90;;;11.20;;
77085;SDS011;66014;53.134;18.006;2023-11-25T12:40:42;31.20;;;14.80;;
77085;SDS011;66014;53.134;18.006;2023-11-25T12:43:11;50.30;;;19.70;;
77085;SDS011;66014;53.134;18.006;2023-11-25T12:45:41;34.20;;;12.50;;
77085;SDS011;66014;53.134;18.006;2023-11-25T12:48:12;26.30;;;13.60;;
77085;SDS011;66014;53.134;18.006;2023-11-25T12:50:58;17.00;;;7.40;;
77085;SDS011;66014;53.134;18.006;2023-11-25T12:53:27;18.50;;;7.50;;
77085;SDS011;66014;53.134;18.006;2023-11-25T12:55:53;24.10;;;8.80;;
77085;SDS011;66014;53.134;18.006;2023-11-25T12:58:23;23.30;;;10.30;;
77085;SDS011;66014;53.134;18.006;2023-11-25T13:00:52;19.30;;;9.30;;
77085;SDS011;66014;53.134;18.006;2023-11-25T13:03:30;15.50;;;7.20;;
77085;SDS011;66014;53.134;18.006;2023-11-25T13:06:03;11.20;;;5.10;;
77085;SDS011;66014;53.134;18.006;2023-11-25T13:08:36;22.50;;;11.20;;
77085;SDS011;66014;53.134;18.006;2023-11-25T13:11:04;20.30;;;11.30;;
77085;SDS011;66014;53.134;18.006;2023-11-25T13:16:01;27.20;;;14.70;;
77085;SDS011;66014;53.134;18.006;2023-11-25T13:18:30;16.70;;;8.00;;
77085;SDS011;66014;53.134;18.006;2023-11-25T13:20:59;11.00;;;6.20;;
77085;SDS011;66014;53.134;18.006;2023-11-25T13:23:33;48.70;;;21.70;;
77085;SDS011;66014;53.134;18.006;2023-11-25T13:26:00;23.20;;;10.70;;
77085;SDS011;66014;53.134;18.006;2023-11-25T13:28:27;19.00;;;8.80;;
77085;SDS011;66014;53.134;18.006;2023-11-25T13:31:00;37.10;;;18.00;;
77085;SDS011;66014;53.134;18.006;2023-11-25T13:33:30;24.90;;;11.20;;
77085;SDS011;66014;53.134;18.006;2023-11-25T13:39:13;38.60;;;16.50;;
77085;SDS011;66014;53.134;18.006;2023-11-25T13:41:51;75.40;;;26.90;;
77085;SDS011;66014;53.134;18.006;2023-11-25T13:44:18;37.40;;;14.40;;
77085;SDS011;66014;53.134;18.006;2023-11-25T13:46:44;37.60;;;16.90;;
77085;SDS011;66014;53.134;18.006;2023-11-25T13:52:45;43.80;;;16.90;;
77085;SDS011;66014;53.134;18.006;2023-11-25T13:55:21;32.60;;;13.30;;
77085;SDS011;66014;53.134;18.006;2023-11-25T13:58:09;41.60;;;17.40;;
77085;SDS011;66014;53.134;18.006;2023-11-25T14:00:35;43.60;;;18.30;;
77085;SDS011;66014;53.134;18.006;2023-11-25T14:03:04;162.70;;;42.00;;
77085;SDS011;66014;53.134;18.006;2023-11-25T14:05:39;70.20;;;25.60;;
77085;SDS011;66014;53.134;18.006;2023-11-25T14:11:57;58.50;;;18.60;;
77085;SDS011;66014;53.134;18.006;2023-11-25T14:14:25;69.40;;;29.70;;
77085;SDS011;66014;53.134;18.006;2023-11-25T14:19:50;53.40;;;20.30;;
77085;SDS011;66014;53.134;18.006;2023-11-25T14:22:39;36.00;;;13.90;;
77085;SDS011;66014;53.134;18.006;2023-11-25T14:25:30;42.60;;;21.30;;
77085;SDS011;66014;53.134;18.006;2023-11-25T14:31:52;27.00;;;13.50;;
77085;SDS011;66014;53.134;18.006;2023-11-25T14:37:42;30.60;;;14.80;;
77085;SDS011;66014;53.134;18.006;2023-11-25T14:40:13;25.30;;;11.90;;
77085;SDS011;66014;53.134;18.006;2023-11-25T14:42:40;34.70;;;14.20;;
77085;SDS011;66014;53.134;18.006;2023-11-25T14:45:07;22.10;;;11.80;;
77085;SDS011;66014;53.134;18.006;2023-11-25T14:47:35;34.40;;;15.30;;
77085;SDS011;66014;53.134;18.006;2023-11-25T14:50:04;44.20;;;20.00;;
77085;SDS011;66014;53.134;18.006;2023-11-25T14:52:37;35.60;;;17.90;;
77085;SDS011;66014;53.134;18.006;2023-11-25T14:55:12;44.50;;;21.30;;
77085;SDS011;66014;53.134;18.006;2023-11-25T14:57:39;38.30;;;15.10;;
77085;SDS011;66014;53.134;18.006;2023-11-25T15:00:24;37.30;;;16.90;;
77085;SDS011;66014;53.134;18.006;2023-11-25T15:03:08;42.50;;;17.90;;
77085;SDS011;66014;53.134;18.006;2023-11-25T15:05:37;52.10;;;23.30;;
77085;SDS011;66014;53.134;18.006;2023-11-25T15:08:03;43.10;;;16.80;;
77085;SDS011;66014;53.134;18.006;2023-11-25T15:10:39;27.90;;;10.10;;
77085;SDS011;66014;53.134;18.006;2023-11-25T15:13:24;27.30;;;10.70;;
77085;SDS011;66014;53.134;18.006;2023-11-25T15:15:51;25.90;;;9.90;;
77085;SDS011;66014;53.134;18.006;2023-11-25T15:18:17;19.60;;;8.40;;
77085;SDS011;66014;53.134;18.006;2023-11-25T15:20:47;26.60;;;10.40;;
77085;SDS011;66014;53.134;18.006;2023-11-25T15:23:13;23.30;;;9.00;;
77085;SDS011;66014;53.134;18.006;2023-11-25T15:25:39;18.30;;;8.00;;
77085;SDS011;66014;53.134;18.006;2023-11-25T15:28:06;21.70;;;9.30;;
77085;SDS011;66014;53.134;18.006;2023-11-25T15:30:34;21.80;;;10.80;;
77085;SDS011;66014;53.134;18.006;2023-11-25T15:33:02;19.50;;;9.30;;
77085;SDS011;66014;53.134;18.006;2023-11-25T15:35:29;22.50;;;10.00;;
77085;SDS011;66014;53.134;18.006;2023-11-25T15:38:03;26.70;;;12.70;;
77085;SDS011;66014;53.134;18.006;2023-11-25T15:40:32;22.50;;;12.10;;
77085;SDS011;66014;53.134;18.006;2023-11-25T15:42:58;23.40;;;10.00;;
77085;SDS011;66014;53.134;18.006;2023-11-25T15:45:25;31.00;;;13.10;;
77085;SDS011;66014;53.134;18.006;2023-11-25T15:47:58;32.00;;;12.90;;
77085;SDS011;66014;53.134;18.006;2023-11-25T15:50:29;32.60;;;13.40;;
77085;SDS011;66014;53.134;18.006;2023-11-25T15:53:01;28.90;;;11.50;;
77085;SDS011;66014;53.134;18.006;2023-11-25T15:55:32;34.80;;;13.70;;
77085;SDS011;66014;53.134;18.006;2023-11-25T15:58:07;29.90;;;14.00;;
77085;SDS011;66014;53.134;18.006;2023-11-25T16:00:42;36.10;;;14.70;;
77085;SDS011;66014;53.134;18.006;2023-11-25T16:03:11;32.20;;;11.60;;
77085;SDS011;66014;53.134;18.006;2023-11-25T16:05:40;32.00;;;13.00;;